Time,TemperatureF,DewpointF,PressureIn,WindDirection,WindDirectionDegrees,WindSpeedMPH,WindSpeedGustMPH,Humidity,HourlyPrecipIn,Conditions,Clouds,dailyrainin,SoftwareType,DateUTC
2013-09-13 00:11:00,72.9,58.6,29.94,WNW,292,0.0,-999.0,61,-99.99,,,0.00,Acu-Link.com,2013-09-13 07:11:00,
2013-09-13 00:27:00,72.5,58.7,29.93,WNW,292,0.0,-999.0,62,-99.99,,,0.00,Acu-Link.com,2013-09-13 07:27:00,
2013-09-13 00:42:00,72.0,58.7,29.94,WNW,292,0.0,-999.0,63,-99.99,,,0.00,Acu-Link.com,2013-09-13 07:42:00,
2013-09-13 00:57:00,70.9,59.0,29.94,WNW,292,2.2,-999.0,66,-99.99,,,0.00,Acu-Link.com,2013-09-13 07:57:00,
2013-09-13 01:13:00,70.3,58.8,29.94,WNW,292,1.1,-999.0,67,-99.99,,,0.00,Acu-Link.com,2013-09-13 08:13:00,
2013-09-13 01:28:00,70.0,58.5,29.93,WNW,292,0.0,-999.0,67,-99.99,,,0.00,Acu-Link.com,2013-09-13 08:28:00,
2013-09-13 01:44:00,69.6,58.6,29.94,WNW,292,1.1,-999.0,68,-99.99,,,0.00,Acu-Link.com,2013-09-13 08:44:00,
2013-09-13 01:59:00,69.1,58.5,29.94,WNW,292,0.0,-999.0,69,-99.99,,,0.00,Acu-Link.com,2013-09-13 08:59:00,
2013-09-13 02:14:00,68.5,58.7,29.94,WNW,292,0.0,-999.0,71,-99.99,,,0.00,Acu-Link.com,2013-09-13 09:14:00,
2013-09-13 02:29:00,67.8,58.8,29.94,WNW,292,0.0,-999.0,73,-99.99,,,0.00,Acu-Link.com,2013-09-13 09:29:00,
2013-09-13 02:44:00,66.2,58.8,29.94,WNW,292,0.0,-999.0,77,-99.99,,,0.00,Acu-Link.com,2013-09-13 09:44:00,
2013-09-13 02:59:00,66.9,59.1,29.94,WNW,292,0.0,-999.0,76,-99.99,,,0.00,Acu-Link.com,2013-09-13 09:59:00,
2013-09-13 03:15:00,66.9,59.1,29.94,WNW,292,0.0,-999.0,76,-99.99,,,0.00,Acu-Link.com,2013-09-13 10:15:00,
2013-09-13 03:30:00,66.9,58.7,29.93,WNW,292,0.0,-999.0,75,-99.99,,,0.00,Acu-Link.com,2013-09-13 10:30:00,
2013-09-13 03:45:00,67.1,58.9,29.92,WNW,292,0.0,-999.0,75,-99.99,,,0.00,Acu-Link.com,2013-09-13 10:45:00,
2013-09-13 04:01:00,66.4,58.6,29.92,WNW,292,0.0,-999.0,76,-99.99,,,0.00,Acu-Link.com,2013-09-13 11:01:00,
2013-09-13 04:16:00,66.6,59.2,29.93,WNW,292,0.0,-999.0,77,-99.99,,,0.00,Acu-Link.com,2013-09-13 11:16:00,
2013-09-13 04:31:00,66.4,59.0,29.93,WNW,292,0.0,-999.0,77,-99.99,,,0.00,Acu-Link.com,2013-09-13 11:31:00,
2013-09-13 04:46:00,65.8,59.1,29.93,WNW,292,0.0,-999.0,79,-99.99,,,0.00,Acu-Link.com,2013-09-13 11:46:00,
2013-09-13 05:02:00,65.8,59.1,29.93,WNW,292,0.0,-999.0,79,-99.99,,,0.00,Acu-Link.com,2013-09-13 12:02:00,
2013-09-13 05:17:00,65.3,59.0,29.93,WNW,292,1.7,-999.0,80,-99.99,,,0.00,Acu-Link.com,2013-09-13 12:17:00,
2013-09-13 05:32:00,64.6,59.0,29.94,WNW,292,1.1,-999.0,82,-99.99,,,0.00,Acu-Link.com,2013-09-13 12:32:00,
2013-09-13 05:48:00,64.2,58.9,29.94,WNW,292,2.2,-999.0,83,-99.99,,,0.00,Acu-Link.com,2013-09-13 12:48:00,
2013-09-13 06:03:00,63.7,58.8,29.94,West,270,2.2,-999.0,84,-99.99,,,0.00,Acu-Link.com,2013-09-13 13:03:00,
2013-09-13 06:19:00,64.0,59.1,29.94,West,270,0.0,-999.0,84,-99.99,,,0.00,Acu-Link.com,2013-09-13 13:19:00,
2013-09-13 06:34:00,63.5,58.6,29.95,West,270,0.0,-999.0,84,-99.99,,,0.00,Acu-Link.com,2013-09-13 13:34:00,
2013-09-13 06:49:00,63.5,58.9,29.95,West,270,1.7,-999.0,85,-99.99,,,0.00,Acu-Link.com,2013-09-13 13:49:00,
2013-09-13 07:04:00,63.3,58.7,29.95,West,270,1.1,-999.0,85,-99.99,,,0.00,Acu-Link.com,2013-09-13 14:04:00,
2013-09-13 07:20:00,64.2,59.3,29.96,West,270,1.7,-999.0,84,-99.99,,,0.00,Acu-Link.com,2013-09-13 14:20:00,
2013-09-13 07:35:00,66.2,59.8,29.95,NW,315,2.2,-999.0,80,-99.99,,,0.00,Acu-Link.com,2013-09-13 14:35:00,
2013-09-13 07:50:00,67.5,60.0,29.96,NNW,337,2.7,-999.0,77,-99.99,,,0.00,Acu-Link.com,2013-09-13 14:50:00,
2013-09-13 08:05:00,69.1,60.8,29.96,NNE,22,2.2,-999.0,75,-99.99,,,0.00,Acu-Link.com,2013-09-13 15:05:00,
2013-09-13 08:20:00,71.2,60.9,29.96,NNE,22,4.7,-999.0,70,-99.99,,,0.00,Acu-Link.com,2013-09-13 15:20:00,
2013-09-13 08:36:00,72.7,61.1,29.96,NW,315,2.7,-999.0,67,-99.99,,,0.00,Acu-Link.com,2013-09-13 15:36:00,
2013-09-13 08:51:00,73.0,61.0,29.95,West,270,1.7,-999.0,66,-99.99,,,0.00,Acu-Link.com,2013-09-13 15:51:00,
2013-09-13 09:06:00,75.9,61.5,29.95,NNE,22,1.7,-999.0,61,-99.99,,,0.00,Acu-Link.com,2013-09-13 16:06:00,
2013-09-13 09:22:00,78.8,62.3,29.94,North,0,2.2,-999.0,57,-99.99,,,0.00,Acu-Link.com,2013-09-13 16:22:00,
2013-09-13 09:37:00,77.7,62.2,29.95,WSW,247,2.2,-999.0,59,-99.99,,,0.00,Acu-Link.com,2013-09-13 16:37:00,
2013-09-13 09:52:00,79.9,62.3,29.94,NNW,337,2.2,-999.0,55,-99.99,,,0.00,Acu-Link.com,2013-09-13 16:52:00,
2013-09-13 10:07:00,77.4,62.4,29.93,NNE,22,4.2,-999.0,60,-99.99,,,0.00,Acu-Link.com,2013-09-13 17:07:00,
2013-09-13 10:22:00,78.8,63.2,29.92,West,270,2.2,-999.0,59,-99.99,,,0.00,Acu-Link.com,2013-09-13 17:22:00,
2013-09-13 10:38:00,79.5,62.4,29.91,West,270,1.1,-999.0,56,-99.99,,,0.00,Acu-Link.com,2013-09-13 17:38:00,
2013-09-13 10:53:00,81.0,62.8,29.91,SSW,202,1.7,-999.0,54,-99.99,,,0.00,Acu-Link.com,2013-09-13 17:53:00,
2013-09-13 11:08:00,82.2,62.8,29.90,West,270,2.2,-999.0,52,-99.99,,,0.00,Acu-Link.com,2013-09-13 18:08:00,
2013-09-13 11:23:00,83.7,63.1,29.90,West,270,1.7,-999.0,50,-99.99,,,0.00,Acu-Link.com,2013-09-13 18:23:00,
2013-09-13 11:38:00,84.6,62.1,29.89,NNE,22,1.7,-999.0,47,-99.99,,,0.00,Acu-Link.com,2013-09-13 18:38:00,
2013-09-13 11:53:00,85.1,62.6,29.88,NW,315,2.7,-999.0,47,-99.99,,,0.00,Acu-Link.com,2013-09-13 18:53:00,
2013-09-13 12:08:00,87.6,62.3,29.87,East,90,1.7,-999.0,43,-99.99,,,0.00,Acu-Link.com,2013-09-13 19:08:00,
2013-09-13 12:24:00,87.8,62.5,29.87,WNW,292,4.2,-999.0,43,-99.99,,,0.00,Acu-Link.com,2013-09-13 19:24:00,
2013-09-13 12:39:00,87.3,62.0,29.87,North,0,2.2,-999.0,43,-99.99,,,0.00,Acu-Link.com,2013-09-13 19:39:00,
2013-09-13 12:54:00,88.9,62.1,29.86,NNW,337,4.7,-999.0,41,-99.99,,,0.00,Acu-Link.com,2013-09-13 19:54:00,
2013-09-13 13:09:00,89.8,60.8,29.85,West,270,1.7,-999.0,38,-99.99,,,0.00,Acu-Link.com,2013-09-13 20:09:00,
2013-09-13 13:24:00,90.9,61.7,29.84,ESE,112,1.7,-999.0,38,-99.99,,,0.00,Acu-Link.com,2013-09-13 20:24:00,
2013-09-13 13:40:00,89.2,61.0,29.84,SSE,157,3.7,-999.0,39,-99.99,,,0.00,Acu-Link.com,2013-09-13 20:40:00,
2013-09-13 13:55:00,91.0,60.3,29.83,NW,315,3.2,-999.0,36,-99.99,,,0.00,Acu-Link.com,2013-09-13 20:55:00,
2013-09-13 14:10:00,92.5,61.6,29.82,WNW,292,4.2,-999.0,36,-99.99,,,0.00,Acu-Link.com,2013-09-13 21:10:00,
2013-09-13 14:26:00,91.9,61.1,29.81,SSW,202,1.7,-999.0,36,-99.99,,,0.00,Acu-Link.com,2013-09-13 21:26:00,
2013-09-13 14:41:00,92.8,61.1,29.80,SW,225,3.7,-999.0,35,-99.99,,,0.00,Acu-Link.com,2013-09-13 21:41:00,
2013-09-13 14:56:00,91.8,61.0,29.80,West,270,1.7,-999.0,36,-99.99,,,0.00,Acu-Link.com,2013-09-13 21:56:00,
2013-09-13 15:12:00,93.2,60.6,29.79,NNW,337,3.7,-999.0,34,-99.99,,,0.00,Acu-Link.com,2013-09-13 22:12:00,
2013-09-13 15:27:00,93.0,60.4,29.78,West,270,2.2,-999.0,34,-99.99,,,0.00,Acu-Link.com,2013-09-13 22:27:00,
2013-09-13 15:42:00,94.5,61.7,29.77,NNW,337,2.2,-999.0,34,-99.99,,,0.00,Acu-Link.com,2013-09-13 22:42:00,
2013-09-13 15:58:00,93.7,60.2,29.76,West,270,2.7,-999.0,33,-99.99,,,0.00,Acu-Link.com,2013-09-13 22:58:00,
2013-09-13 16:13:00,93.0,59.6,29.76,South,180,2.2,-999.0,33,-99.99,,,0.00,Acu-Link.com,2013-09-13 23:13:00,
2013-09-13 16:28:00,94.6,61.0,29.75,ENE,67,3.2,-999.0,33,-99.99,,,0.00,Acu-Link.com,2013-09-13 23:28:00,
2013-09-13 16:43:00,93.2,59.8,29.74,NNE,22,3.7,-999.0,33,-99.99,,,0.00,Acu-Link.com,2013-09-13 23:43:00,
2013-09-13 16:59:00,94.6,60.1,29.74,East,90,2.2,-999.0,32,-99.99,,,0.00,Acu-Link.com,2013-09-13 23:59:00,
2013-09-13 17:14:00,93.6,59.3,29.74,WNW,292,4.7,-999.0,32,-99.99,,,0.00,Acu-Link.com,2013-09-14 00:14:00,
2013-09-13 17:29:00,93.6,59.3,29.74,West,270,2.2,-999.0,32,-99.99,,,0.00,Acu-Link.com,2013-09-14 00:29:00,
2013-09-13 17:45:00,93.4,58.2,29.74,WSW,247,4.2,-999.0,31,-99.99,,,0.00,Acu-Link.com,2013-09-14 00:45:00,
2013-09-13 18:00:00,94.6,57.4,29.74,NNW,337,4.2,-999.0,29,-99.99,,,0.00,Acu-Link.com,2013-09-14 01:00:00,
2013-09-13 18:15:00,93.2,56.2,29.74,NW,315,3.7,-999.0,29,-99.99,,,0.00,Acu-Link.com,2013-09-14 01:15:00,
2013-09-13 18:30:00,91.8,57.7,29.74,NW,315,2.2,-999.0,32,-99.99,,,0.00,Acu-Link.com,2013-09-14 01:30:00,
2013-09-13 18:45:00,90.1,58.7,29.74,West,270,2.7,-999.0,35,-99.99,,,0.00,Acu-Link.com,2013-09-14 01:45:00,
2013-09-13 19:00:00,88.3,59.4,29.75,NNW,337,1.7,-999.0,38,-99.99,,,0.00,Acu-Link.com,2013-09-14 02:00:00,
2013-09-13 19:15:00,86.7,59.5,29.75,NNW,337,2.2,-999.0,40,-99.99,,,0.00,Acu-Link.com,2013-09-14 02:15:00,
2013-09-13 19:30:00,85.8,59.3,29.76,West,270,0.0,-999.0,41,-99.99,,,0.00,Acu-Link.com,2013-09-14 02:30:00,
2013-09-13 19:46:00,85.1,59.4,29.76,West,270,0.0,-999.0,42,-99.99,,,0.00,Acu-Link.com,2013-09-14 02:46:00,
2013-09-13 20:01:00,84.2,59.2,29.77,West,270,1.7,-999.0,43,-99.99,,,0.00,Acu-Link.com,2013-09-14 03:01:00,
2013-09-13 20:16:00,82.9,59.4,29.77,West,270,1.1,-999.0,45,-99.99,,,0.00,Acu-Link.com,2013-09-14 03:16:00,
2013-09-13 20:31:00,82.4,59.5,29.77,West,270,1.7,-999.0,46,-99.99,,,0.00,Acu-Link.com,2013-09-14 03:31:00,
2013-09-13 20:47:00,82.2,59.3,29.78,North,0,1.7,-999.0,46,-99.99,,,0.00,Acu-Link.com,2013-09-14 03:47:00,
2013-09-13 21:02:00,81.1,59.5,29.78,WNW,292,0.0,-999.0,48,-99.99,,,0.00,Acu-Link.com,2013-09-14 04:02:00,
2013-09-13 21:17:00,79.9,60.7,29.79,WNW,292,1.7,-999.0,52,-99.99,,,0.00,Acu-Link.com,2013-09-14 04:17:00,
2013-09-13 21:32:00,78.8,60.2,29.79,WNW,292,0.0,-999.0,53,-99.99,,,0.00,Acu-Link.com,2013-09-14 04:32:00,
2013-09-13 21:48:00,78.4,60.4,29.79,WNW,292,1.1,-999.0,54,-99.99,,,0.00,Acu-Link.com,2013-09-14 04:48:00,
2013-09-13 22:03:00,77.2,59.8,29.79,WNW,292,0.0,-999.0,55,-99.99,,,0.00,Acu-Link.com,2013-09-14 05:03:00,
2013-09-13 22:18:00,77.2,60.3,29.79,WNW,292,0.0,-999.0,56,-99.99,,,0.00,Acu-Link.com,2013-09-14 05:18:00,
2013-09-13 22:34:00,76.6,60.2,29.80,WNW,292,1.1,-999.0,57,-99.99,,,0.00,Acu-Link.com,2013-09-14 05:34:00,
2013-09-13 22:49:00,76.3,60.4,29.80,WNW,292,1.7,-999.0,58,-99.99,,,0.00,Acu-Link.com,2013-09-14 05:49:00,
2013-09-13 23:04:00,75.9,60.5,29.80,WNW,292,0.0,-999.0,59,-99.99,,,0.00,Acu-Link.com,2013-09-14 06:04:00,
2013-09-13 23:20:00,75.4,60.5,29.79,WNW,292,1.7,-999.0,60,-99.99,,,0.00,Acu-Link.com,2013-09-14 06:20:00,
2013-09-13 23:35:00,75.6,60.7,29.79,WNW,292,0.0,-999.0,60,-99.99,,,0.00,Acu-Link.com,2013-09-14 06:35:00,
2013-09-13 23:50:00,75.7,60.8,29.80,WNW,292,1.7,-999.0,60,-99.99,,,0.00,Acu-Link.com,2013-09-14 06:50:00,